createdAt,value
2022-12-28T00:04:26.298Z,14.31
2022-12-28T00:09:29.215Z,14.19
2022-12-28T00:14:33.738Z,14.19
2022-12-28T00:19:36.552Z,14.15
2022-12-28T00:24:39.424Z,14.02
2022-12-28T00:29:43.945Z,13.93
2022-12-28T00:34:46.801Z,13.79
2022-12-28T00:39:49.627Z,13.79
2022-12-28T00:44:54.099Z,13.75
2022-12-28T00:49:56.935Z,13.68
2022-12-28T00:54:59.774Z,13.55
2022-12-28T01:00:04.633Z,13.48
2022-12-28T01:05:08.023Z,13.36
2022-12-28T01:10:11.410Z,13.25
2022-12-28T01:15:15.905Z,13.21
2022-12-28T01:20:19.570Z,13.05
2022-12-28T01:25:22.409Z,12.89
2022-12-28T01:30:26.962Z,12.79
2022-12-28T01:35:29.831Z,12.62
2022-12-28T01:40:32.681Z,12.55
2022-12-28T01:45:37.259Z,12.47
2022-12-28T01:50:40.159Z,12.43
2022-12-28T01:55:43.114Z,12.28
2022-12-28T02:00:48.826Z,12.28
2022-12-28T02:05:53.230Z,12.27
2022-12-28T02:10:56.912Z,12.19
2022-12-28T02:16:01.828Z,12.17
2022-12-28T02:21:25.289Z,12.17
2022-12-28T02:26:36.482Z,12.08
2022-12-28T02:31:44.035Z,12.03
2022-12-28T02:36:50.803Z,11.98
2022-12-28T02:41:54.572Z,12.00
2022-12-28T02:46:59.539Z,11.99
2022-12-28T02:52:08.298Z,11.97
2022-12-28T02:57:16.403Z,12.05
2022-12-28T03:02:28.085Z,11.99
2022-12-28T03:07:36.484Z,11.88
2022-12-28T03:12:44.204Z,11.73
2022-12-28T03:17:48.780Z,11.69
2022-12-28T03:22:52.503Z,11.70
2022-12-28T03:27:55.431Z,11.70
2022-12-28T03:33:01.545Z,11.69
2022-12-28T03:38:04.952Z,11.58
2022-12-28T03:43:11.115Z,11.50
2022-12-28T03:48:15.810Z,11.71
2022-12-28T03:53:20.551Z,11.80
2022-12-28T03:58:23.377Z,11.93
2022-12-28T04:03:28.076Z,12.31
2022-12-28T04:08:31.520Z,12.53
2022-12-28T04:13:34.402Z,12.27
2022-12-28T04:18:39.958Z,12.02
2022-12-28T04:23:43.284Z,11.78
2022-12-28T04:28:48.974Z,11.66
2022-12-28T04:33:53.602Z,11.55
2022-12-28T04:38:56.497Z,11.42
2022-12-28T04:43:59.426Z,11.21
2022-12-28T04:49:04.308Z,11.18
2022-12-28T04:54:07.567Z,11.11
2022-12-28T04:59:10.468Z,11.06
2022-12-28T05:04:15.023Z,11.03
2022-12-28T05:09:17.920Z,11.09
2022-12-28T05:14:20.812Z,11.03
2022-12-28T05:19:25.345Z,11.03
2022-12-28T05:24:28.232Z,10.95
2022-12-28T05:29:31.874Z,10.90
2022-12-28T05:34:36.401Z,10.81
2022-12-28T05:39:39.286Z,10.75
2022-12-28T05:44:42.254Z,10.63
2022-12-28T05:49:46.777Z,10.56
2022-12-28T05:54:49.626Z,10.65
2022-12-28T05:59:53.203Z,10.57
2022-12-28T06:04:57.753Z,10.65
2022-12-28T06:10:00.586Z,10.52
2022-12-28T06:15:03.452Z,10.60
2022-12-28T06:20:08.684Z,10.79
2022-12-28T06:25:11.548Z,10.76
2022-12-28T06:30:14.787Z,10.71
2022-12-28T06:35:19.287Z,10.79
2022-12-28T06:40:33.342Z,10.90
2022-12-28T06:45:45.075Z,10.91
2022-12-28T06:50:56.599Z,10.91
2022-12-28T06:55:59.956Z,10.96
2022-12-28T07:01:06.788Z,10.94
2022-12-28T07:06:12.102Z,10.94
2022-12-28T07:11:17.523Z,10.91
2022-12-28T07:16:21.351Z,10.80
2022-12-28T07:21:26.786Z,10.71
2022-12-28T07:26:30.764Z,10.55
2022-12-28T07:31:38.356Z,10.44
2022-12-28T07:36:44.485Z,10.37
2022-12-28T07:41:47.362Z,10.25
2022-12-28T07:46:50.228Z,10.07
2022-12-28T07:51:54.773Z,10.13
2022-12-28T07:56:57.636Z,10.03
2022-12-28T08:02:00.624Z,9.91
2022-12-28T08:07:05.308Z,9.81
2022-12-28T08:12:08.371Z,9.65
2022-12-28T08:17:14.851Z,9.62
2022-12-28T08:22:23.565Z,9.48
2022-12-28T08:27:26.391Z,9.56
2022-12-28T08:32:29.228Z,9.50
2022-12-28T08:37:33.722Z,9.48
2022-12-28T08:42:36.533Z,9.48
2022-12-28T08:47:39.363Z,9.51
2022-12-28T08:52:43.901Z,9.47
2022-12-28T08:57:46.746Z,9.46
2022-12-28T09:02:49.717Z,9.34
2022-12-28T09:07:59.421Z,9.38
2022-12-28T09:13:02.622Z,9.39
2022-12-28T09:18:06.326Z,9.31
2022-12-28T09:23:10.857Z,9.30
2022-12-28T09:28:13.801Z,9.30
2022-12-28T09:33:16.625Z,9.29
2022-12-28T09:38:21.561Z,9.28
2022-12-28T09:43:24.796Z,9.28
2022-12-28T09:48:27.677Z,9.27
2022-12-28T09:53:34.237Z,9.13
2022-12-28T09:58:38.298Z,9.03
2022-12-28T10:03:41.957Z,9.03
2022-12-28T10:08:48.805Z,8.93
2022-12-28T10:13:56.130Z,8.90
2022-12-28T10:18:59.637Z,8.80
2022-12-28T10:24:31.511Z,8.83
2022-12-28T10:29:31.944Z,8.76
2022-12-28T10:34:35.516Z,8.68
2022-12-28T10:39:40.036Z,8.63
2022-12-28T10:44:43.333Z,8.59
2022-12-28T10:50:10.067Z,8.53
2022-12-28T10:55:27.024Z,8.37
2022-12-28T11:00:31.630Z,8.31
2022-12-28T11:05:34.533Z,8.38
2022-12-28T11:10:37.606Z,8.30
2022-12-28T11:15:42.107Z,8.16
2022-12-28T11:20:45.963Z,8.07
2022-12-28T11:25:49.062Z,8.06
2022-12-28T11:30:53.685Z,8.04
2022-12-28T11:35:59.757Z,7.96
2022-12-28T11:41:03.559Z,7.91
2022-12-28T11:46:08.687Z,7.90
2022-12-28T11:51:15.614Z,7.90
2022-12-28T11:56:19.697Z,7.71
2022-12-28T12:01:40.753Z,7.69
2022-12-28T12:07:01.602Z,7.78
2022-12-28T12:12:32.972Z,7.81
2022-12-28T12:17:43.309Z,7.80
2022-12-28T12:22:48.707Z,7.78
2022-12-28T12:27:56.037Z,7.68
2022-12-28T12:33:00.957Z,7.69
2022-12-28T12:38:06.755Z,7.76
2022-12-28T12:43:19.610Z,7.77
2022-12-28T12:48:36.850Z,7.74
2022-12-28T12:53:52.279Z,7.76
2022-12-28T12:59:03.539Z,7.66
2022-12-28T13:04:14.523Z,7.69
2022-12-28T13:09:18.080Z,7.53
2022-12-28T13:14:23.762Z,7.55
2022-12-28T13:19:27.255Z,7.77
2022-12-28T13:24:30.864Z,7.95
2022-12-28T13:29:40.212Z,8.22
2022-12-28T13:34:49.810Z,8.45
2022-12-28T13:40:08.968Z,8.61
2022-12-28T13:45:15.830Z,8.73
2022-12-28T13:50:19.848Z,8.91
2022-12-28T13:55:24.658Z,8.83
2022-12-28T14:00:30.766Z,8.41
2022-12-28T14:05:34.364Z,8.47
2022-12-28T14:10:37.547Z,9.02
2022-12-28T14:15:42.400Z,8.82
2022-12-28T14:20:48.853Z,8.55
2022-12-28T14:25:52.210Z,8.47
2022-12-28T14:30:57.276Z,8.26
2022-12-28T14:36:00.892Z,8.01
2022-12-28T14:41:03.879Z,7.87
2022-12-28T14:46:18.607Z,7.76
2022-12-28T14:51:26.018Z,7.66
2022-12-28T14:56:34.137Z,7.61
2022-12-28T15:01:43.193Z,7.58
2022-12-28T15:06:46.113Z,7.50
2022-12-28T15:11:49.013Z,7.41
2022-12-28T15:16:53.638Z,7.36
2022-12-28T15:21:56.511Z,7.41
2022-12-28T15:26:59.345Z,7.36
2022-12-28T15:32:03.848Z,7.35
2022-12-28T15:37:06.688Z,7.43
2022-12-28T15:42:10.232Z,7.54
2022-12-28T15:47:14.805Z,7.54
2022-12-28T15:52:17.651Z,7.67
2022-12-28T15:57:20.532Z,7.77
2022-12-28T16:02:25.223Z,7.93
2022-12-28T16:07:28.135Z,7.98
2022-12-28T16:12:30.949Z,8.20
2022-12-28T16:17:41.154Z,8.51
2022-12-28T16:22:49.837Z,8.52
2022-12-28T16:27:52.686Z,8.69
2022-12-28T16:32:57.173Z,8.83
2022-12-28T16:38:00.002Z,9.25
2022-12-28T16:43:05.633Z,9.24
2022-12-28T16:48:11.873Z,9.57
2022-12-28T16:53:15.512Z,9.96
2022-12-28T16:58:20.775Z,10.28
2022-12-28T17:03:25.368Z,10.29
2022-12-28T17:08:28.329Z,10.21
2022-12-28T17:13:31.147Z,10.38
2022-12-28T17:18:35.764Z,10.80
2022-12-28T17:23:38.943Z,11.17
2022-12-28T17:28:41.850Z,11.33
2022-12-28T17:33:47.673Z,11.53
2022-12-28T17:38:50.843Z,11.90
2022-12-28T17:43:54.364Z,11.89
2022-12-28T17:48:59.299Z,12.05
2022-12-28T17:54:02.385Z,12.03
2022-12-28T17:59:05.272Z,12.13
2022-12-28T18:04:09.770Z,12.10
2022-12-28T18:09:12.586Z,12.03
2022-12-28T18:14:15.462Z,12.17
2022-12-28T18:19:20.032Z,12.75
2022-12-28T18:24:22.877Z,13.21
2022-12-28T18:29:25.776Z,13.52
2022-12-28T18:34:30.342Z,13.73
2022-12-28T18:39:33.173Z,13.63
2022-12-28T18:44:36.033Z,13.40
2022-12-28T18:49:46.803Z,13.83
2022-12-28T18:54:49.996Z,14.12
2022-12-28T18:59:52.846Z,14.17
2022-12-28T19:04:57.404Z,13.77
2022-12-28T19:10:01.264Z,13.60
2022-12-28T19:15:07.184Z,13.72
2022-12-28T19:20:12.089Z,13.99
2022-12-28T19:25:15.003Z,13.49
2022-12-28T19:30:17.926Z,13.12
2022-12-28T19:35:22.463Z,13.16
2022-12-28T19:40:25.338Z,13.13
2022-12-28T19:45:28.192Z,13.32
2022-12-28T19:50:32.707Z,13.39
2022-12-28T19:55:35.536Z,13.35
2022-12-28T20:00:38.391Z,13.43
2022-12-28T20:05:42.889Z,13.35
2022-12-28T20:10:45.766Z,13.37
2022-12-28T20:15:48.638Z,13.20
2022-12-28T20:21:18.536Z,13.28
2022-12-28T20:26:16.605Z,13.43
2022-12-28T20:31:19.546Z,13.32
2022-12-28T20:36:24.836Z,13.49
2022-12-28T20:41:28.474Z,13.43
2022-12-28T20:46:31.449Z,13.32
2022-12-28T20:51:36.300Z,13.27
2022-12-28T20:56:39.458Z,13.17
2022-12-28T21:01:42.911Z,13.33
2022-12-28T21:06:47.575Z,13.34
2022-12-28T21:11:50.476Z,13.32
2022-12-28T21:16:53.494Z,13.49
2022-12-28T21:21:59.079Z,13.71
2022-12-28T21:27:01.968Z,13.58
2022-12-28T21:32:05.166Z,13.54
2022-12-28T21:37:09.725Z,13.49
2022-12-28T21:42:12.570Z,13.74
2022-12-28T21:47:15.451Z,13.93
2022-12-28T21:52:19.992Z,13.79
2022-12-28T21:57:22.886Z,13.85
2022-12-28T22:02:25.956Z,13.87
2022-12-28T22:07:30.961Z,13.85
2022-12-28T22:12:34.009Z,13.71
2022-12-28T22:17:36.946Z,13.79
2022-12-28T22:22:42.195Z,13.79
2022-12-28T22:27:45.087Z,13.88
2022-12-28T22:32:47.984Z,13.81
2022-12-28T22:37:52.495Z,13.86
2022-12-28T22:42:55.348Z,13.80
2022-12-28T22:47:58.197Z,13.75
2022-12-28T22:53:02.696Z,13.67
2022-12-28T22:58:05.566Z,13.82
2022-12-28T23:03:08.481Z,13.84
2022-12-28T23:08:13.040Z,13.83
2022-12-28T23:13:15.896Z,13.89
2022-12-28T23:18:18.793Z,14.04
2022-12-28T23:23:23.895Z,13.98
2022-12-28T23:28:26.893Z,14.12
2022-12-28T23:33:29.764Z,13.90
2022-12-28T23:38:34.478Z,13.72
2022-12-28T23:43:37.340Z,13.50
2022-12-28T23:48:40.240Z,13.34
2022-12-28T23:53:44.784Z,13.34
2022-12-28T23:58:50.181Z,13.27
